St Cloud Regional Airport
KSTC : now visible

Airfield :











YOU CAN JOIN US ON...

 
LOGIN :

Register | Disclaimer

   EN    FR    IT 

 









Legend :    VFR   Marginal VFR   IFR   Intensive IFR   Very Intensive IFR
Visi :
Ceiling :
>= 8 km
>= 3000ft
5 to 8 km
1000 to 3000 ft
1500m to 5 km
500 to 1000 ft
800 to 1500m
200 to 500 ft
< 800m
< 200 ft
Symbols :   Thunderstorms  Fog  Heavy snow  Heavy precipitations  Wind > 20 kt







- Airport Elevation : 1031 ft
- IATA code : STC


KSTC - St Cloud Regional

CURRENT METAR :
  • 181214Z 11007KT 10SM BKN023 BKN035 OVC050 21/19 A2984 RMK AO2 LTG DSNT NE AND E T02060194

EXPIRED METARs :
  • 181153Z 09004KT 10SM FEW011 SCT035 OVC049 21/19 A2985 RMK AO2 LTG DSNT N-SE RAE33 TSB1055E26 SLP109 P0010 60047 70138 T02060194 10233 20200 50007
  • 181142Z 08003KT 10SM FEW011 BKN049 OVC080 21/19 A2984 RMK AO2 LTG DSNT ALQDS RAE33 TSB1055E26 P0010 T02060189 $
  • 181132Z 15003KT 10SM VCTS -RA SCT049 BKN065 OVC080 21/19 A2984 RMK AO2 LTG DSNT ALQDS TSB1055E26 P0010 T02110189 $
  • 181101Z AUTO 27003KT 10SM -TSRA FEW012 BKN100 21/19 A2985 RMK AO2 LTG DSNT ALQDS TSB1055 P0000 T02060189 $
  • 181053Z AUTO 19008KT 8SM VCTS -RA SCT014 BKN047 BKN110 21/16 A2986 RMK AO2 LTG DSNT ALQDS SLP112 P0007 T02060161 $
  • 181042Z AUTO 17013G19KT 6SM VCTS -RA BR BKN012 BKN023 OVC100 21/19 A2982 RMK AO2 LTG DSNT ALQDS PRESFR P0006 T02110194
  • 180953Z AUTO 21006KT 5SM -RA BR BKN017 BKN026 OVC043 22/21 A2985 RMK AO2 LTG DSNT ALQDS TSB09E24 SLP110 P0012 T02170206
  • 180924Z AUTO 17009KT 8SM VCTS -RA SCT020 BKN034 OVC080 22/21 A2983 RMK AO2 LTG DSNT ALQDS TSB09E24 P0008 T02170206

TAF KSTC
Valid from the 18 at 12:00 until the 19 at 12:00 UTC


181147Z 1812/1912 VRB05KT P6SM VCTS BKN070CB
FM181400 19011G19KT P6SM BKN045
FM181700 20016G26KT P6SM SCT040
FM182200 23012G20KT P6SM FEW200
FM190800 23005KT P6SM FEW250
No reported NOTAMs for that airfield.



MET'MAP, your aeronautical weather chart ! - Copyright ORBIFLY December 2007 - Disclaimer

ORBIFLY MET'MAP TEAM :

Programming & Development : Alexandra Zaïnal
Concept & Development : Baudouin d'Aumeries
Co-Development & Prog : Marc-Olivier Méhu
Technical & hardware support : Manuel Goepfert

Contact : metmap@orbifly.com




SOURCES & CREDITS :

   NOAA       Earth
Advisory